sensor_id;sensor_type;location;lat;lon;timestamp;temperature;humidity
8856;DHT22;4464;50.882;4.730;2022-12-18T00:01:04;-5.20;99.90
8856;DHT22;4464;50.882;4.730;2022-12-18T00:03:35;-5.30;99.90
8856;DHT22;4464;50.882;4.730;2022-12-18T00:06:02;-5.30;99.90
8856;DHT22;4464;50.882;4.730;2022-12-18T00:08:30;-5.30;99.90
8856;DHT22;4464;50.882;4.730;2022-12-18T00:11:04;-5.30;99.90
8856;DHT22;4464;50.882;4.730;2022-12-18T00:13:33;-5.40;99.90
8856;DHT22;4464;50.882;4.730;2022-12-18T00:16:07;-5.40;99.90
8856;DHT22;4464;50.882;4.730;2022-12-18T00:18:37;-5.40;99.90
8856;DHT22;4464;50.882;4.730;2022-12-18T00:21:06;-5.50;99.90
8856;DHT22;4464;50.882;4.730;2022-12-18T00:23:33;-5.50;99.90
8856;DHT22;4464;50.882;4.730;2022-12-18T00:26:08;-5.40;99.90
8856;DHT22;4464;50.882;4.730;2022-12-18T00:28:37;-5.40;99.90
8856;DHT22;4464;50.882;4.730;2022-12-18T00:31:08;-5.50;99.90
8856;DHT22;4464;50.882;4.730;2022-12-18T00:33:37;-5.60;99.90
8856;DHT22;4464;50.882;4.730;2022-12-18T00:36:06;-5.70;99.90
8856;DHT22;4464;50.882;4.730;2022-12-18T00:38:37;-5.80;99.90
8856;DHT22;4464;50.882;4.730;2022-12-18T00:41:06;-5.70;99.90
8856;DHT22;4464;50.882;4.730;2022-12-18T00:43:32;-5.70;99.90
8856;DHT22;4464;50.882;4.730;2022-12-18T00:45:58;-5.70;99.90
8856;DHT22;4464;50.882;4.730;2022-12-18T00:48:24;-5.80;99.90
8856;DHT22;4464;50.882;4.730;2022-12-18T00:50:51;-5.80;99.90
8856;DHT22;4464;50.882;4.730;2022-12-18T00:53:20;-5.90;99.90
8856;DHT22;4464;50.882;4.730;2022-12-18T00:55:46;-5.90;99.90
8856;DHT22;4464;50.882;4.730;2022-12-18T00:58:15;-5.90;99.90
8856;DHT22;4464;50.882;4.730;2022-12-18T01:00:42;-5.90;99.90
8856;DHT22;4464;50.882;4.730;2022-12-18T01:03:10;-5.90;99.90
8856;DHT22;4464;50.882;4.730;2022-12-18T01:05:40;-5.90;99.90
8856;DHT22;4464;50.882;4.730;2022-12-18T01:08:10;-5.90;99.90
8856;DHT22;4464;50.882;4.730;2022-12-18T01:10:40;-5.90;99.90
8856;DHT22;4464;50.882;4.730;2022-12-18T01:13:07;-5.90;99.90
8856;DHT22;4464;50.882;4.730;2022-12-18T01:15:33;-5.80;99.90
8856;DHT22;4464;50.882;4.730;2022-12-18T01:17:59;-5.80;99.90
8856;DHT22;4464;50.882;4.730;2022-12-18T01:20:27;-5.80;99.90
8856;DHT22;4464;50.882;4.730;2022-12-18T01:22:56;-5.90;99.90
8856;DHT22;4464;50.882;4.730;2022-12-18T01:25:21;-5.90;99.90
8856;DHT22;4464;50.882;4.730;2022-12-18T01:27:47;-5.90;99.90
8856;DHT22;4464;50.882;4.730;2022-12-18T01:30:13;-5.90;99.90
8856;DHT22;4464;50.882;4.730;2022-12-18T01:32:39;-6.00;99.90
8856;DHT22;4464;50.882;4.730;2022-12-18T01:35:06;-6.00;99.90
8856;DHT22;4464;50.882;4.730;2022-12-18T01:37:34;-6.00;99.90
8856;DHT22;4464;50.882;4.730;2022-12-18T01:40:00;-6.10;99.90
8856;DHT22;4464;50.882;4.730;2022-12-18T01:42:26;-6.20;99.90
8856;DHT22;4464;50.882;4.730;2022-12-18T01:47:53;-6.30;99.90
8856;DHT22;4464;50.882;4.730;2022-12-18T01:50:40;-6.20;99.90
8856;DHT22;4464;50.882;4.730;2022-12-18T01:53:13;-6.10;99.90
8856;DHT22;4464;50.882;4.730;2022-12-18T01:55:49;-6.10;99.90
8856;DHT22;4464;50.882;4.730;2022-12-18T01:58:16;-6.00;99.90
8856;DHT22;4464;50.882;4.730;2022-12-18T02:00:42;-6.00;99.90
8856;DHT22;4464;50.882;4.730;2022-12-18T02:03:08;-6.10;99.90
8856;DHT22;4464;50.882;4.730;2022-12-18T02:11:24;-6.30;99.90
8856;DHT22;4464;50.882;4.730;2022-12-18T02:14:05;-6.30;99.90
8856;DHT22;4464;50.882;4.730;2022-12-18T02:25:02;-6.40;99.90
8856;DHT22;4464;50.882;4.730;2022-12-18T02:27:32;-6.40;99.90
8856;DHT22;4464;50.882;4.730;2022-12-18T02:30:01;-6.40;99.90
8856;DHT22;4464;50.882;4.730;2022-12-18T02:32:35;-6.40;99.90
8856;DHT22;4464;50.882;4.730;2022-12-18T02:35:05;-6.50;99.90
8856;DHT22;4464;50.882;4.730;2022-12-18T02:37:33;-6.50;99.90
8856;DHT22;4464;50.882;4.730;2022-12-18T02:40:00;-6.50;99.90
8856;DHT22;4464;50.882;4.730;2022-12-18T02:42:28;-6.50;99.90
8856;DHT22;4464;50.882;4.730;2022-12-18T02:44:54;-6.50;99.90
8856;DHT22;4464;50.882;4.730;2022-12-18T02:47:23;-6.50;99.90
8856;DHT22;4464;50.882;4.730;2022-12-18T02:55:28;-6.50;99.90
8856;DHT22;4464;50.882;4.730;2022-12-18T02:58:27;-6.40;99.90
8856;DHT22;4464;50.882;4.730;2022-12-18T03:04:13;-6.40;99.90
8856;DHT22;4464;50.882;4.730;2022-12-18T03:06:46;-6.50;99.90
8856;DHT22;4464;50.882;4.730;2022-12-18T03:09:34;-6.50;99.90
8856;DHT22;4464;50.882;4.730;2022-12-18T03:12:12;-6.50;99.90
8856;DHT22;4464;50.882;4.730;2022-12-18T03:15:08;-6.40;99.90
8856;DHT22;4464;50.882;4.730;2022-12-18T03:17:35;-6.40;99.90
8856;DHT22;4464;50.882;4.730;2022-12-18T03:20:07;-6.40;99.90
8856;DHT22;4464;50.882;4.730;2022-12-18T03:22:37;-6.40;99.90
8856;DHT22;4464;50.882;4.730;2022-12-18T03:25:07;-6.40;99.90
8856;DHT22;4464;50.882;4.730;2022-12-18T03:27:33;-6.40;99.90
8856;DHT22;4464;50.882;4.730;2022-12-18T03:30:08;-6.40;99.90
8856;DHT22;4464;50.882;4.730;2022-12-18T03:32:45;-6.40;99.90
8856;DHT22;4464;50.882;4.730;2022-12-18T03:35:14;-6.40;99.90
8856;DHT22;4464;50.882;4.730;2022-12-18T03:37:43;-6.50;99.90
8856;DHT22;4464;50.882;4.730;2022-12-18T03:40:09;-6.40;99.90
8856;DHT22;4464;50.882;4.730;2022-12-18T03:45:15;-6.70;99.90
8856;DHT22;4464;50.882;4.730;2022-12-18T03:48:20;-6.80;99.90
8856;DHT22;4464;50.882;4.730;2022-12-18T03:50:59;-6.80;99.90
8856;DHT22;4464;50.882;4.730;2022-12-18T03:53:52;-6.80;99.90
8856;DHT22;4464;50.882;4.730;2022-12-18T03:56:21;-6.80;99.90
8856;DHT22;4464;50.882;4.730;2022-12-18T03:58:51;-6.70;99.90
8856;DHT22;4464;50.882;4.730;2022-12-18T04:01:37;-6.70;99.90
8856;DHT22;4464;50.882;4.730;2022-12-18T04:04:04;-6.80;99.90
8856;DHT22;4464;50.882;4.730;2022-12-18T04:06:34;-6.70;99.90
8856;DHT22;4464;50.882;4.730;2022-12-18T04:09:04;-6.70;99.90
8856;DHT22;4464;50.882;4.730;2022-12-18T04:11:30;-6.70;99.90
8856;DHT22;4464;50.882;4.730;2022-12-18T04:13:57;-6.70;99.90
8856;DHT22;4464;50.882;4.730;2022-12-18T04:16:27;-6.70;99.90
8856;DHT22;4464;50.882;4.730;2022-12-18T04:18:53;-6.70;99.90
8856;DHT22;4464;50.882;4.730;2022-12-18T04:21:20;-6.80;99.90
8856;DHT22;4464;50.882;4.730;2022-12-18T04:23:46;-6.90;99.90
8856;DHT22;4464;50.882;4.730;2022-12-18T04:26:12;-7.00;99.90
8856;DHT22;4464;50.882;4.730;2022-12-18T04:28:39;-6.90;99.90
8856;DHT22;4464;50.882;4.730;2022-12-18T04:31:05;-7.00;99.90
8856;DHT22;4464;50.882;4.730;2022-12-18T04:33:31;-6.80;99.90
8856;DHT22;4464;50.882;4.730;2022-12-18T04:35:57;-6.70;99.90
8856;DHT22;4464;50.882;4.730;2022-12-18T04:38:26;-6.70;99.90
8856;DHT22;4464;50.882;4.730;2022-12-18T04:40:55;-6.80;99.90
8856;DHT22;4464;50.882;4.730;2022-12-18T04:43:24;-6.90;99.90
8856;DHT22;4464;50.882;4.730;2022-12-18T04:45:52;-7.00;99.90
8856;DHT22;4464;50.882;4.730;2022-12-18T04:48:19;-7.00;99.90
8856;DHT22;4464;50.882;4.730;2022-12-18T04:50:47;-7.00;99.90
8856;DHT22;4464;50.882;4.730;2022-12-18T04:53:13;-7.00;99.90
8856;DHT22;4464;50.882;4.730;2022-12-18T04:55:39;-7.00;99.90
8856;DHT22;4464;50.882;4.730;2022-12-18T04:58:04;-7.00;99.90
8856;DHT22;4464;50.882;4.730;2022-12-18T05:00:30;-7.00;99.90
8856;DHT22;4464;50.882;4.730;2022-12-18T05:02:56;-7.00;99.90
8856;DHT22;4464;50.882;4.730;2022-12-18T05:05:27;-7.00;99.90
8856;DHT22;4464;50.882;4.730;2022-12-18T05:07:55;-6.90;99.90
8856;DHT22;4464;50.882;4.730;2022-12-18T05:10:26;-6.80;99.90
8856;DHT22;4464;50.882;4.730;2022-12-18T05:12:51;-6.70;99.90
8856;DHT22;4464;50.882;4.730;2022-12-18T05:15:30;-6.70;99.90
8856;DHT22;4464;50.882;4.730;2022-12-18T05:17:57;-6.70;99.90
8856;DHT22;4464;50.882;4.730;2022-12-18T05:20:24;-6.70;99.90
8856;DHT22;4464;50.882;4.730;2022-12-18T05:22:51;-6.70;99.90
8856;DHT22;4464;50.882;4.730;2022-12-18T05:25:20;-6.60;99.90
8856;DHT22;4464;50.882;4.730;2022-12-18T05:27:46;-6.70;99.90
8856;DHT22;4464;50.882;4.730;2022-12-18T05:30:13;-6.70;99.90
8856;DHT22;4464;50.882;4.730;2022-12-18T05:32:39;-6.80;99.90
8856;DHT22;4464;50.882;4.730;2022-12-18T05:35:08;-6.70;99.90
8856;DHT22;4464;50.882;4.730;2022-12-18T05:37:37;-6.70;99.90
8856;DHT22;4464;50.882;4.730;2022-12-18T05:40:04;-6.70;99.90
8856;DHT22;4464;50.882;4.730;2022-12-18T05:42:31;-6.70;99.90
8856;DHT22;4464;50.882;4.730;2022-12-18T05:44:56;-6.70;99.90
8856;DHT22;4464;50.882;4.730;2022-12-18T05:47:23;-6.70;99.90
8856;DHT22;4464;50.882;4.730;2022-12-18T05:49:48;-6.80;99.90
8856;DHT22;4464;50.882;4.730;2022-12-18T05:52:16;-6.80;99.90
8856;DHT22;4464;50.882;4.730;2022-12-18T05:54:42;-6.70;99.90
8856;DHT22;4464;50.882;4.730;2022-12-18T05:57:09;-6.70;99.90
8856;DHT22;4464;50.882;4.730;2022-12-18T05:59:35;-6.70;99.90
8856;DHT22;4464;50.882;4.730;2022-12-18T06:02:04;-6.70;99.90
8856;DHT22;4464;50.882;4.730;2022-12-18T06:04:35;-6.70;99.90
8856;DHT22;4464;50.882;4.730;2022-12-18T06:07:03;-6.70;99.90
8856;DHT22;4464;50.882;4.730;2022-12-18T06:09:31;-6.80;99.90
8856;DHT22;4464;50.882;4.730;2022-12-18T06:11:57;-6.80;99.90
8856;DHT22;4464;50.882;4.730;2022-12-18T06:14:24;-6.80;99.90
8856;DHT22;4464;50.882;4.730;2022-12-18T06:16:50;-6.80;99.90
8856;DHT22;4464;50.882;4.730;2022-12-18T06:19:17;-6.70;99.90
8856;DHT22;4464;50.882;4.730;2022-12-18T06:21:43;-6.70;99.90
8856;DHT22;4464;50.882;4.730;2022-12-18T06:24:09;-6.70;99.90
8856;DHT22;4464;50.882;4.730;2022-12-18T06:26:39;-6.70;99.90
8856;DHT22;4464;50.882;4.730;2022-12-18T06:29:05;-6.80;99.90
8856;DHT22;4464;50.882;4.730;2022-12-18T06:31:32;-6.80;99.90
8856;DHT22;4464;50.882;4.730;2022-12-18T06:34:05;-6.80;99.90
8856;DHT22;4464;50.882;4.730;2022-12-18T06:36:32;-6.80;99.90
8856;DHT22;4464;50.882;4.730;2022-12-18T06:38:57;-6.70;99.90
8856;DHT22;4464;50.882;4.730;2022-12-18T06:41:26;-6.80;99.90
8856;DHT22;4464;50.882;4.730;2022-12-18T06:43:55;-6.80;99.90
8856;DHT22;4464;50.882;4.730;2022-12-18T06:46:23;-6.90;99.90
8856;DHT22;4464;50.882;4.730;2022-12-18T06:48:52;-6.80;99.90
8856;DHT22;4464;50.882;4.730;2022-12-18T06:51:24;-6.90;99.90
8856;DHT22;4464;50.882;4.730;2022-12-18T06:53:50;-6.80;99.90
8856;DHT22;4464;50.882;4.730;2022-12-18T06:56:19;-6.70;99.90
8856;DHT22;4464;50.882;4.730;2022-12-18T06:58:48;-6.70;99.90
8856;DHT22;4464;50.882;4.730;2022-12-18T07:01:17;-6.70;99.90
8856;DHT22;4464;50.882;4.730;2022-12-18T07:03:43;-6.80;99.90
8856;DHT22;4464;50.882;4.730;2022-12-18T07:06:17;-6.90;99.90
8856;DHT22;4464;50.882;4.730;2022-12-18T07:08:44;-6.90;99.90
8856;DHT22;4464;50.882;4.730;2022-12-18T07:11:10;-6.90;99.90
8856;DHT22;4464;50.882;4.730;2022-12-18T07:13:37;-6.90;99.90
8856;DHT22;4464;50.882;4.730;2022-12-18T07:16:14;-6.70;99.90
8856;DHT22;4464;50.882;4.730;2022-12-18T07:18:41;-6.70;99.90
8856;DHT22;4464;50.882;4.730;2022-12-18T07:21:09;-6.70;99.90
8856;DHT22;4464;50.882;4.730;2022-12-18T07:23:38;-6.60;99.90
8856;DHT22;4464;50.882;4.730;2022-12-18T07:26:10;-6.70;99.90
8856;DHT22;4464;50.882;4.730;2022-12-18T07:28:40;-6.60;99.90
8856;DHT22;4464;50.882;4.730;2022-12-18T07:31:15;-6.50;99.90
8856;DHT22;4464;50.882;4.730;2022-12-18T07:33:41;-6.50;99.90
8856;DHT22;4464;50.882;4.730;2022-12-18T07:36:12;-6.50;99.90
8856;DHT22;4464;50.882;4.730;2022-12-18T07:38:39;-6.50;99.90
8856;DHT22;4464;50.882;4.730;2022-12-18T07:41:08;-6.60;99.90
8856;DHT22;4464;50.882;4.730;2022-12-18T07:43:35;-6.60;99.90
8856;DHT22;4464;50.882;4.730;2022-12-18T07:46:01;-6.50;99.90
8856;DHT22;4464;50.882;4.730;2022-12-18T07:48:27;-6.50;99.90
8856;DHT22;4464;50.882;4.730;2022-12-18T07:50:53;-6.50;99.90
8856;DHT22;4464;50.882;4.730;2022-12-18T07:53:19;-6.40;99.90
8856;DHT22;4464;50.882;4.730;2022-12-18T07:55:45;-6.40;99.90
8856;DHT22;4464;50.882;4.730;2022-12-18T07:58:10;-6.40;99.90
8856;DHT22;4464;50.882;4.730;2022-12-18T08:00:36;-6.30;99.90
8856;DHT22;4464;50.882;4.730;2022-12-18T08:03:02;-6.20;99.90
8856;DHT22;4464;50.882;4.730;2022-12-18T08:05:28;-6.10;99.90
8856;DHT22;4464;50.882;4.730;2022-12-18T08:07:54;-6.00;99.90
8856;DHT22;4464;50.882;4.730;2022-12-18T08:10:21;-5.80;99.90
8856;DHT22;4464;50.882;4.730;2022-12-18T08:12:51;-5.70;99.90
8856;DHT22;4464;50.882;4.730;2022-12-18T08:15:17;-5.70;99.90
8856;DHT22;4464;50.882;4.730;2022-12-18T08:17:43;-5.60;99.90
8856;DHT22;4464;50.882;4.730;2022-12-18T08:20:09;-5.60;99.90
8856;DHT22;4464;50.882;4.730;2022-12-18T08:22:37;-5.40;99.90
8856;DHT22;4464;50.882;4.730;2022-12-18T08:25:06;-5.20;99.90
8856;DHT22;4464;50.882;4.730;2022-12-18T08:27:34;-5.00;99.90
8856;DHT22;4464;50.882;4.730;2022-12-18T08:30:01;-4.70;99.90
8856;DHT22;4464;50.882;4.730;2022-12-18T08:32:28;-4.50;99.90
8856;DHT22;4464;50.882;4.730;2022-12-18T08:34:54;-4.30;99.90
8856;DHT22;4464;50.882;4.730;2022-12-18T08:37:20;-4.10;99.90
8856;DHT22;4464;50.882;4.730;2022-12-18T08:39:48;-4.00;99.90
8856;DHT22;4464;50.882;4.730;2022-12-18T08:42:14;-3.90;99.90
8856;DHT22;4464;50.882;4.730;2022-12-18T08:44:58;-3.70;99.90
8856;DHT22;4464;50.882;4.730;2022-12-18T08:47:25;-3.50;99.90
8856;DHT22;4464;50.882;4.730;2022-12-18T08:49:51;-3.20;99.90
8856;DHT22;4464;50.882;4.730;2022-12-18T08:52:17;-3.10;99.90
8856;DHT22;4464;50.882;4.730;2022-12-18T08:54:45;-3.00;99.90
8856;DHT22;4464;50.882;4.730;2022-12-18T08:57:11;-3.00;99.90
8856;DHT22;4464;50.882;4.730;2022-12-18T08:59:40;-3.00;99.90
8856;DHT22;4464;50.882;4.730;2022-12-18T09:02:07;-3.00;99.90
8856;DHT22;4464;50.882;4.730;2022-12-18T09:04:34;-2.90;99.90
8856;DHT22;4464;50.882;4.730;2022-12-18T09:07:00;-2.80;99.90
8856;DHT22;4464;50.882;4.730;2022-12-18T09:09:28;-2.70;99.90
8856;DHT22;4464;50.882;4.730;2022-12-18T09:11:57;-2.60;99.90
8856;DHT22;4464;50.882;4.730;2022-12-18T09:14:23;-2.40;99.90
8856;DHT22;4464;50.882;4.730;2022-12-18T09:16:49;-2.40;99.90
8856;DHT22;4464;50.882;4.730;2022-12-18T09:19:15;-2.30;99.90
8856;DHT22;4464;50.882;4.730;2022-12-18T09:21:41;-2.20;99.90
8856;DHT22;4464;50.882;4.730;2022-12-18T09:24:11;-2.10;99.90
8856;DHT22;4464;50.882;4.730;2022-12-18T09:26:42;-2.00;99.90
8856;DHT22;4464;50.882;4.730;2022-12-18T09:29:08;-1.80;99.90
8856;DHT22;4464;50.882;4.730;2022-12-18T09:31:36;-1.70;99.90
8856;DHT22;4464;50.882;4.730;2022-12-18T09:34:06;-1.70;99.90
8856;DHT22;4464;50.882;4.730;2022-12-18T09:36:32;-1.60;99.90
8856;DHT22;4464;50.882;4.730;2022-12-18T09:39:02;-1.70;99.90
8856;DHT22;4464;50.882;4.730;2022-12-18T09:41:41;-1.60;99.90
8856;DHT22;4464;50.882;4.730;2022-12-18T09:44:24;-1.70;99.90
8856;DHT22;4464;50.882;4.730;2022-12-18T09:47:10;-1.70;99.90
8856;DHT22;4464;50.882;4.730;2022-12-18T09:49:46;-1.60;99.90
8856;DHT22;4464;50.882;4.730;2022-12-18T09:52:34;-1.50;99.90
8856;DHT22;4464;50.882;4.730;2022-12-18T09:57:32;-1.40;99.90
8856;DHT22;4464;50.882;4.730;2022-12-18T10:00:06;-1.40;99.90
8856;DHT22;4464;50.882;4.730;2022-12-18T10:02:37;-1.50;99.90
8856;DHT22;4464;50.882;4.730;2022-12-18T10:05:16;-1.50;99.90
8856;DHT22;4464;50.882;4.730;2022-12-18T10:10:46;-1.30;99.90
8856;DHT22;4464;50.882;4.730;2022-12-18T10:22:08;-1.20;99.90
8856;DHT22;4464;50.882;4.730;2022-12-18T10:27:26;-1.30;99.90
8856;DHT22;4464;50.882;4.730;2022-12-18T10:29:53;-1.30;99.90
8856;DHT22;4464;50.882;4.730;2022-12-18T10:32:28;-1.10;99.90
8856;DHT22;4464;50.882;4.730;2022-12-18T10:34:56;-1.20;99.90
8856;DHT22;4464;50.882;4.730;2022-12-18T10:37:28;-1.10;99.90
8856;DHT22;4464;50.882;4.730;2022-12-18T10:40:14;-1.10;99.90
8856;DHT22;4464;50.882;4.730;2022-12-18T10:42:41;-1.20;99.90
8856;DHT22;4464;50.882;4.730;2022-12-18T10:45:15;-1.10;99.90
8856;DHT22;4464;50.882;4.730;2022-12-18T10:47:49;-1.20;99.90
8856;DHT22;4464;50.882;4.730;2022-12-18T10:50:29;-1.10;99.90
8856;DHT22;4464;50.882;4.730;2022-12-18T10:53:03;-1.00;99.90
8856;DHT22;4464;50.882;4.730;2022-12-18T10:55:38;-0.90;99.90
8856;DHT22;4464;50.882;4.730;2022-12-18T10:58:21;-1.00;99.90
8856;DHT22;4464;50.882;4.730;2022-12-18T11:01:12;-0.90;99.90
8856;DHT22;4464;50.882;4.730;2022-12-18T11:03:42;-0.70;99.90
8856;DHT22;4464;50.882;4.730;2022-12-18T11:06:16;-0.70;99.90
8856;DHT22;4464;50.882;4.730;2022-12-18T11:08:44;-0.60;99.90
8856;DHT22;4464;50.882;4.730;2022-12-18T11:11:23;-0.50;99.90
8856;DHT22;4464;50.882;4.730;2022-12-18T11:16:23;-0.30;99.90
8856;DHT22;4464;50.882;4.730;2022-12-18T11:18:54;-0.30;99.90
8856;DHT22;4464;50.882;4.730;2022-12-18T11:21:21;-0.20;99.90
8856;DHT22;4464;50.882;4.730;2022-12-18T11:23:50;0.00;99.90
8856;DHT22;4464;50.882;4.730;2022-12-18T11:26:17;0.00;99.90
8856;DHT22;4464;50.882;4.730;2022-12-18T11:28:50;0.10;99.90
8856;DHT22;4464;50.882;4.730;2022-12-18T11:31:29;0.10;99.90
8856;DHT22;4464;50.882;4.730;2022-12-18T11:36:32;0.20;99.90
8856;DHT22;4464;50.882;4.730;2022-12-18T11:39:07;0.10;99.90
8856;DHT22;4464;50.882;4.730;2022-12-18T11:41:52;0.20;99.90
8856;DHT22;4464;50.882;4.730;2022-12-18T11:49:55;0.10;99.90
8856;DHT22;4464;50.882;4.730;2022-12-18T11:52:31;0.10;99.90
8856;DHT22;4464;50.882;4.730;2022-12-18T12:00:22;0.10;99.90
8856;DHT22;4464;50.882;4.730;2022-12-18T12:03:28;0.20;99.90
8856;DHT22;4464;50.882;4.730;2022-12-18T12:22:52;0.70;99.90
8856;DHT22;4464;50.882;4.730;2022-12-18T12:28:41;0.80;99.90
8856;DHT22;4464;50.882;4.730;2022-12-18T12:32:11;0.90;99.90
8856;DHT22;4464;50.882;4.730;2022-12-18T12:39:38;1.00;99.90
8856;DHT22;4464;50.882;4.730;2022-12-18T12:42:29;1.10;99.90
8856;DHT22;4464;50.882;4.730;2022-12-18T12:45:19;1.10;99.90
8856;DHT22;4464;50.882;4.730;2022-12-18T12:47:52;1.20;99.90
8856;DHT22;4464;50.882;4.730;2022-12-18T12:50:19;1.20;99.90
8856;DHT22;4464;50.882;4.730;2022-12-18T12:52:52;1.20;99.90
8856;DHT22;4464;50.882;4.730;2022-12-18T12:55:22;1.10;99.90
8856;DHT22;4464;50.882;4.730;2022-12-18T13:01:03;1.30;99.90
8856;DHT22;4464;50.882;4.730;2022-12-18T13:06:33;1.20;99.90
8856;DHT22;4464;50.882;4.730;2022-12-18T13:09:03;1.30;99.90
8856;DHT22;4464;50.882;4.730;2022-12-18T13:11:36;1.40;99.90
8856;DHT22;4464;50.882;4.730;2022-12-18T13:14:30;1.50;99.90
8856;DHT22;4464;50.882;4.730;2022-12-18T13:19:52;1.60;99.90
8856;DHT22;4464;50.882;4.730;2022-12-18T13:22:28;1.50;99.90
8856;DHT22;4464;50.882;4.730;2022-12-18T13:24:55;1.50;99.90
8856;DHT22;4464;50.882;4.730;2022-12-18T13:48:36;1.50;99.90
8856;DHT22;4464;50.882;4.730;2022-12-18T13:51:06;1.50;99.90
8856;DHT22;4464;50.882;4.730;2022-12-18T13:53:46;1.50;99.90
8856;DHT22;4464;50.882;4.730;2022-12-18T13:56:17;1.50;99.90
8856;DHT22;4464;50.882;4.730;2022-12-18T13:59:10;1.40;99.90
8856;DHT22;4464;50.882;4.730;2022-12-18T14:01:42;1.40;99.90
8856;DHT22;4464;50.882;4.730;2022-12-18T14:04:40;1.40;99.90
8856;DHT22;4464;50.882;4.730;2022-12-18T14:07:14;1.40;99.90
8856;DHT22;4464;50.882;4.730;2022-12-18T14:09:46;1.40;99.90
8856;DHT22;4464;50.882;4.730;2022-12-18T14:12:31;1.40;99.90
8856;DHT22;4464;50.882;4.730;2022-12-18T14:17:56;1.40;99.90
8856;DHT22;4464;50.882;4.730;2022-12-18T14:20:25;1.30;99.90
8856;DHT22;4464;50.882;4.730;2022-12-18T14:22:52;1.30;99.90
8856;DHT22;4464;50.882;4.730;2022-12-18T14:25:22;1.30;99.90
8856;DHT22;4464;50.882;4.730;2022-12-18T14:27:59;1.30;99.90
8856;DHT22;4464;50.882;4.730;2022-12-18T14:30:31;1.30;99.90
8856;DHT22;4464;50.882;4.730;2022-12-18T14:35:52;1.40;99.90
8856;DHT22;4464;50.882;4.730;2022-12-18T14:38:39;1.40;99.90
8856;DHT22;4464;50.882;4.730;2022-12-18T14:41:15;1.30;99.90
8856;DHT22;4464;50.882;4.730;2022-12-18T14:43:44;1.30;99.90
8856;DHT22;4464;50.882;4.730;2022-12-18T14:46:26;1.30;99.90
8856;DHT22;4464;50.882;4.730;2022-12-18T14:48:59;1.20;99.90
8856;DHT22;4464;50.882;4.730;2022-12-18T14:51:27;1.20;99.90
8856;DHT22;4464;50.882;4.730;2022-12-18T14:54:03;1.20;99.90
8856;DHT22;4464;50.882;4.730;2022-12-18T14:56:32;1.20;99.90
8856;DHT22;4464;50.882;4.730;2022-12-18T14:59:12;1.20;99.90
8856;DHT22;4464;50.882;4.730;2022-12-18T15:09:33;1.10;99.90
8856;DHT22;4464;50.882;4.730;2022-12-18T15:12:00;1.10;99.90
8856;DHT22;4464;50.882;4.730;2022-12-18T15:16:56;1.10;99.90
8856;DHT22;4464;50.882;4.730;2022-12-18T15:19:34;1.00;99.90
8856;DHT22;4464;50.882;4.730;2022-12-18T15:22:03;1.00;99.90
8856;DHT22;4464;50.882;4.730;2022-12-18T15:24:32;1.00;99.90
8856;DHT22;4464;50.882;4.730;2022-12-18T15:27:00;1.00;99.90
8856;DHT22;4464;50.882;4.730;2022-12-18T15:29:29;1.00;99.90
8856;DHT22;4464;50.882;4.730;2022-12-18T15:32:00;1.00;99.90
8856;DHT22;4464;50.882;4.730;2022-12-18T15:34:27;0.90;99.90
8856;DHT22;4464;50.882;4.730;2022-12-18T15:36:56;0.90;99.90
8856;DHT22;4464;50.882;4.730;2022-12-18T15:39:22;0.90;99.90
8856;DHT22;4464;50.882;4.730;2022-12-18T15:41:48;0.80;99.90
8856;DHT22;4464;50.882;4.730;2022-12-18T15:44:33;0.90;99.90
8856;DHT22;4464;50.882;4.730;2022-12-18T15:47:02;0.90;99.90
8856;DHT22;4464;50.882;4.730;2022-12-18T15:49:28;0.90;99.90
8856;DHT22;4464;50.882;4.730;2022-12-18T15:51:57;0.90;99.90
8856;DHT22;4464;50.882;4.730;2022-12-18T15:54:23;0.90;99.90
8856;DHT22;4464;50.882;4.730;2022-12-18T15:57:11;0.90;99.90
8856;DHT22;4464;50.882;4.730;2022-12-18T15:59:51;0.90;99.90
8856;DHT22;4464;50.882;4.730;2022-12-18T16:02:22;0.90;99.90
8856;DHT22;4464;50.882;4.730;2022-12-18T16:04:51;0.90;99.90
8856;DHT22;4464;50.882;4.730;2022-12-18T16:07:27;0.90;99.90
8856;DHT22;4464;50.882;4.730;2022-12-18T16:09:54;0.90;99.90
8856;DHT22;4464;50.882;4.730;2022-12-18T16:12:24;1.00;99.90
8856;DHT22;4464;50.882;4.730;2022-12-18T16:14:51;1.00;99.90
8856;DHT22;4464;50.882;4.730;2022-12-18T16:17:19;1.00;99.90
8856;DHT22;4464;50.882;4.730;2022-12-18T16:19:47;1.00;99.90
8856;DHT22;4464;50.882;4.730;2022-12-18T16:22:28;1.00;99.90
8856;DHT22;4464;50.882;4.730;2022-12-18T16:24:57;1.00;99.90
8856;DHT22;4464;50.882;4.730;2022-12-18T16:27:26;1.00;99.90
8856;DHT22;4464;50.882;4.730;2022-12-18T16:29:52;1.00;99.90
8856;DHT22;4464;50.882;4.730;2022-12-18T16:32:20;1.10;99.90
8856;DHT22;4464;50.882;4.730;2022-12-18T16:34:47;1.00;99.90
8856;DHT22;4464;50.882;4.730;2022-12-18T16:37:15;1.00;99.90
8856;DHT22;4464;50.882;4.730;2022-12-18T16:39:42;1.00;99.90
8856;DHT22;4464;50.882;4.730;2022-12-18T16:42:16;1.00;99.90
8856;DHT22;4464;50.882;4.730;2022-12-18T16:44:45;1.00;99.90
8856;DHT22;4464;50.882;4.730;2022-12-18T16:47:13;1.00;99.90
8856;DHT22;4464;50.882;4.730;2022-12-18T16:49:44;1.00;99.90
8856;DHT22;4464;50.882;4.730;2022-12-18T16:52:10;1.00;99.90
8856;DHT22;4464;50.882;4.730;2022-12-18T16:54:37;1.10;99.90
8856;DHT22;4464;50.882;4.730;2022-12-18T16:57:03;1.10;99.90
8856;DHT22;4464;50.882;4.730;2022-12-18T16:59:35;1.10;99.90
8856;DHT22;4464;50.882;4.730;2022-12-18T17:02:03;1.10;99.90
8856;DHT22;4464;50.882;4.730;2022-12-18T17:04:30;1.10;99.90
8856;DHT22;4464;50.882;4.730;2022-12-18T17:06:55;1.10;99.90
8856;DHT22;4464;50.882;4.730;2022-12-18T17:09:26;1.20;99.90
8856;DHT22;4464;50.882;4.730;2022-12-18T17:11:53;1.20;99.90
8856;DHT22;4464;50.882;4.730;2022-12-18T17:14:21;1.10;99.90
8856;DHT22;4464;50.882;4.730;2022-12-18T17:16:50;1.20;99.90
8856;DHT22;4464;50.882;4.730;2022-12-18T17:19:17;1.20;99.90
8856;DHT22;4464;50.882;4.730;2022-12-18T17:21:47;1.20;99.90
8856;DHT22;4464;50.882;4.730;2022-12-18T17:24:16;1.20;99.90
8856;DHT22;4464;50.882;4.730;2022-12-18T17:26:45;1.20;99.90
8856;DHT22;4464;50.882;4.730;2022-12-18T17:29:14;1.20;99.90
8856;DHT22;4464;50.882;4.730;2022-12-18T17:31:40;1.20;99.90
8856;DHT22;4464;50.882;4.730;2022-12-18T17:34:09;1.20;99.90
8856;DHT22;4464;50.882;4.730;2022-12-18T17:36:36;1.20;99.90
8856;DHT22;4464;50.882;4.730;2022-12-18T17:39:04;1.30;99.90
8856;DHT22;4464;50.882;4.730;2022-12-18T17:41:31;1.30;99.90
8856;DHT22;4464;50.882;4.730;2022-12-18T17:44:00;1.30;99.90
8856;DHT22;4464;50.882;4.730;2022-12-18T17:46:30;1.30;99.90
8856;DHT22;4464;50.882;4.730;2022-12-18T17:48:58;1.30;99.90
8856;DHT22;4464;50.882;4.730;2022-12-18T17:51:25;1.20;99.90
8856;DHT22;4464;50.882;4.730;2022-12-18T17:53:56;1.20;99.90
8856;DHT22;4464;50.882;4.730;2022-12-18T17:56:23;1.20;99.90
8856;DHT22;4464;50.882;4.730;2022-12-18T17:58:50;1.20;99.90
8856;DHT22;4464;50.882;4.730;2022-12-18T18:01:21;1.20;99.90
8856;DHT22;4464;50.882;4.730;2022-12-18T18:03:47;1.20;99.90
8856;DHT22;4464;50.882;4.730;2022-12-18T18:06:14;1.20;99.90
8856;DHT22;4464;50.882;4.730;2022-12-18T18:08:43;1.10;99.90
8856;DHT22;4464;50.882;4.730;2022-12-18T18:11:15;1.10;99.90
8856;DHT22;4464;50.882;4.730;2022-12-18T18:14:00;1.10;99.90
8856;DHT22;4464;50.882;4.730;2022-12-18T18:18:58;1.00;99.90
8856;DHT22;4464;50.882;4.730;2022-12-18T18:21:26;1.00;99.90
8856;DHT22;4464;50.882;4.730;2022-12-18T18:23:52;1.00;99.90
8856;DHT22;4464;50.882;4.730;2022-12-18T18:26:18;0.90;99.90
8856;DHT22;4464;50.882;4.730;2022-12-18T18:28:46;0.90;99.90
8856;DHT22;4464;50.882;4.730;2022-12-18T18:31:15;0.90;99.90
8856;DHT22;4464;50.882;4.730;2022-12-18T18:33:42;0.90;99.90
8856;DHT22;4464;50.882;4.730;2022-12-18T18:36:09;0.80;99.90
8856;DHT22;4464;50.882;4.730;2022-12-18T18:38:35;0.80;99.90
8856;DHT22;4464;50.882;4.730;2022-12-18T18:41:06;0.80;99.90
8856;DHT22;4464;50.882;4.730;2022-12-18T18:43:32;0.80;99.90